Alverda, Pennsylvania
Current Conditions -  °F | °C
As of 8:15 AM on Wednesday 22 Oct 2014 (Local Time) from KIDI Reporting Station
Overcast Overcast  
Wind Chill: 43°   Ceiling: 1200
Heat Index: 46°   Visibility: 10mi
Dew Point: 43°   Wind: 7mph
Humidity: 87%   Direction: NA
Pressure: 30.12"   Gusts: 13mph
Location:  40.63°N, 78.86°W
Report Text: KIDI 221215Z AUTO VRB06G11KT 10SM OVC012 08/06 A3012 RMK A01
Loading
Personal Weather Stations






























Interactive Weather Map New forecast layout! Learn more

10-Day Weather Forecast

Advertisements
Track Severe Weather on mobile